createdAt,value
2018-12-13T00:02:10.580Z,98621.84
2018-12-13T00:04:54.248Z,98619.61
2018-12-13T00:10:10.875Z,98611.69
2018-12-13T00:12:45.736Z,98608.61
2018-12-13T00:15:24.112Z,98611.19
2018-12-13T00:17:56.158Z,98608.75
2018-12-13T00:20:29.149Z,98603.23
2018-12-13T00:23:04.771Z,98597.72
2018-12-13T00:25:41.983Z,98599.97
2018-12-13T00:28:12.367Z,98597.63
2018-12-13T00:30:48.550Z,98595.97
2018-12-13T00:33:18.466Z,98598.19
2018-12-13T00:35:55.361Z,98595.52
2018-12-13T00:38:30.862Z,98589.41
2018-12-13T00:41:03.352Z,98582.73
2018-12-13T00:43:36.233Z,98589.77
2018-12-13T00:46:07.536Z,98587.52
2018-12-13T00:51:21.863Z,98580.40
2018-12-13T00:53:52.256Z,98578.75
2018-12-13T00:56:24.840Z,98579.47
2018-12-13T00:58:57.945Z,98577.36
2018-12-13T01:01:28.451Z,98578.05
2018-12-13T01:03:59.466Z,98571.84
2018-12-13T01:06:31.405Z,98574.98
2018-12-13T01:09:00.969Z,98569.38
2018-12-13T01:11:36.446Z,98565.41
2018-12-13T01:14:06.562Z,98571.25
2018-12-13T01:22:03.202Z,98562.84
2018-12-13T01:30:01.620Z,98556.41
2018-12-13T01:32:34.323Z,98561.78
2018-12-13T01:35:04.561Z,98557.92
2018-12-13T01:37:51.463Z,98561.78
2018-12-13T01:40:23.272Z,98557.12
2018-12-13T01:42:53.237Z,98557.23
2018-12-13T01:45:25.188Z,98554.75
2018-12-13T01:47:55.071Z,98551.03
2018-12-13T01:50:26.355Z,98547.16
2018-12-13T01:55:44.601Z,98548.81
2018-12-13T01:58:15.993Z,98548.45
2018-12-13T02:00:46.253Z,98546.94
2018-12-13T02:03:18.198Z,98543.89
2018-12-13T02:05:47.818Z,98544.02
2018-12-13T02:08:30.805Z,98545.67
2018-12-13T02:11:11.512Z,98541.21
2018-12-13T02:13:43.456Z,98544.05
2018-12-13T02:16:25.571Z,98541.70
2018-12-13T02:18:57.901Z,98542.62
2018-12-13T02:24:11.183Z,98541.36
2018-12-13T02:27:05.251Z,98538.31
2018-12-13T02:38:10.704Z,98521.00
2018-12-13T02:49:17.245Z,98521.79
2018-12-13T02:57:17.884Z,98521.91
2018-12-13T02:59:53.879Z,98511.14
2018-12-13T03:05:08.616Z,98502.35
2018-12-13T03:07:39.983Z,98503.64
2018-12-13T03:10:11.326Z,98501.32
2018-12-13T03:15:23.801Z,98500.83
2018-12-13T03:17:56.942Z,98490.54
2018-12-13T03:20:30.682Z,98493.48
2018-12-13T03:23:01.903Z,98492.75
2018-12-13T03:25:32.573Z,98484.82
2018-12-13T03:28:05.310Z,98484.70
2018-12-13T03:30:35.555Z,98479.55
2018-12-13T03:35:48.077Z,98474.28
2018-12-13T03:38:22.389Z,98472.27
2018-12-13T03:40:59.257Z,98472.88
2018-12-13T03:43:34.838Z,98478.38
2018-12-13T03:49:01.357Z,98463.03
2018-12-13T03:51:43.979Z,98462.45
2018-12-13T03:54:31.839Z,98458.23
2018-12-13T03:59:58.013Z,98457.54
2018-12-13T04:02:40.588Z,98454.61
2018-12-13T04:05:18.830Z,98456.49
2018-12-13T04:07:55.434Z,98446.44
2018-12-13T04:10:29.959Z,98447.60
2018-12-13T04:13:01.146Z,98439.41
2018-12-13T04:15:42.019Z,98440.56
2018-12-13T04:18:20.405Z,98437.52
2018-12-13T04:20:59.636Z,98434.84
2018-12-13T04:23:43.442Z,98436.82
2018-12-13T04:26:21.566Z,98436.38
2018-12-13T04:28:55.181Z,98427.69
2018-12-13T04:31:32.863Z,98431.47
2018-12-13T04:34:08.040Z,98429.22
2018-12-13T04:36:41.579Z,98423.74
2018-12-13T04:41:51.797Z,98420.09
2018-12-13T04:44:22.924Z,98417.05
2018-12-13T04:46:55.684Z,98415.90
2018-12-13T04:49:26.305Z,98406.42
2018-12-13T04:51:55.816Z,98405.23
2018-12-13T04:54:25.511Z,98403.71
2018-12-13T04:56:55.947Z,98395.65
2018-12-13T04:59:26.796Z,98400.69
2018-12-13T05:01:56.685Z,98400.44
2018-12-13T05:04:26.170Z,98400.11
2018-12-13T05:06:55.962Z,98394.38
2018-12-13T05:09:25.421Z,98396.47
2018-12-13T05:11:55.008Z,98400.80
2018-12-13T05:14:24.413Z,98391.20
2018-12-13T05:16:53.877Z,98389.92
2018-12-13T05:19:23.612Z,98384.77
2018-12-13T05:21:53.086Z,98384.44
2018-12-13T05:24:22.546Z,98381.51
2018-12-13T05:26:52.128Z,98378.92
2018-12-13T05:29:21.542Z,98381.49
2018-12-13T05:31:51.153Z,98380.92
2018-12-13T05:34:20.614Z,98371.45
2018-12-13T05:36:50.077Z,98378.45
2018-12-13T05:39:19.603Z,98377.53
2018-12-13T05:41:49.083Z,98381.85
2018-12-13T05:44:22.611Z,98381.39
2018-12-13T05:46:52.089Z,98380.10
2018-12-13T05:49:21.585Z,98378.22
2018-12-13T05:51:50.993Z,98378.45
2018-12-13T05:54:20.508Z,98370.99
2018-12-13T05:56:50.010Z,98371.32
2018-12-13T05:59:19.710Z,98368.52
2018-12-13T06:01:49.401Z,98371.92
2018-12-13T06:04:18.899Z,98367.23
2018-12-13T06:06:48.674Z,98366.55
2018-12-13T06:09:18.247Z,98369.82
2018-12-13T06:11:47.911Z,98364.42
2018-12-13T06:14:17.403Z,98361.84
2018-12-13T06:16:47.235Z,98364.19
2018-12-13T06:19:16.902Z,98364.77
2018-12-13T06:21:47.627Z,98364.66
2018-12-13T06:24:17.139Z,98359.16
2018-12-13T06:26:47.927Z,98356.02
2018-12-13T06:29:17.745Z,98356.02
2018-12-13T06:31:47.458Z,98351.80
2018-12-13T06:34:17.025Z,98350.88
2018-12-13T06:36:46.540Z,98356.25
2018-12-13T06:39:16.051Z,98354.25
2018-12-13T06:41:45.539Z,98356.47
2018-12-13T06:44:15.188Z,98352.96
2018-12-13T06:46:44.668Z,98365.00
2018-12-13T06:49:14.482Z,98366.07
2018-12-13T06:51:43.872Z,98357.53
2018-12-13T06:54:13.356Z,98363.73
2018-12-13T06:56:42.826Z,98359.98
2018-12-13T06:59:12.321Z,98366.78
2018-12-13T07:01:41.801Z,98366.42
2018-12-13T07:04:11.220Z,98365.26
2018-12-13T07:06:40.816Z,98370.73
2018-12-13T07:09:10.319Z,98363.02
2018-12-13T07:11:39.772Z,98360.44
2018-12-13T07:14:09.338Z,98353.68
2018-12-13T07:16:38.747Z,98356.12
2018-12-13T07:19:08.219Z,98359.73
2018-12-13T07:21:37.655Z,98361.52
2018-12-13T07:24:07.399Z,98353.89
2018-12-13T07:26:36.848Z,98359.39
2018-12-13T07:29:06.463Z,98355.08
2018-12-13T07:31:35.838Z,98358.70
2018-12-13T07:34:05.553Z,98367.59
2018-12-13T07:36:35.176Z,98374.25
2018-12-13T07:39:09.089Z,98371.91
2018-12-13T07:41:38.838Z,98378.47
2018-12-13T07:44:08.351Z,98372.84
2018-12-13T07:46:37.833Z,98380.00
2018-12-13T07:49:07.465Z,98386.66
2018-12-13T07:51:37.097Z,98384.31
2018-12-13T07:54:06.878Z,98386.54
2018-12-13T07:56:36.584Z,98381.49
2018-12-13T07:59:06.275Z,98398.69
2018-12-13T08:01:35.804Z,98396.35
2018-12-13T08:04:05.510Z,98393.33
2018-12-13T08:06:34.962Z,98402.33
2018-12-13T08:09:06.881Z,98397.88
2018-12-13T08:11:36.499Z,98397.41
2018-12-13T08:14:06.151Z,98402.78
2018-12-13T08:19:15.410Z,98400.80
2018-12-13T08:21:44.854Z,98396.81
2018-12-13T08:24:14.317Z,98382.44
2018-12-13T08:26:43.792Z,98385.37
2018-12-13T08:29:13.525Z,98384.20
2018-12-13T08:31:43.123Z,98390.73
2018-12-13T08:34:12.841Z,98388.52
2018-12-13T08:36:42.550Z,98391.69
2018-12-13T08:39:11.983Z,98379.39
2018-12-13T08:41:41.426Z,98384.30
2018-12-13T08:44:11.050Z,98380.34
2018-12-13T08:46:40.560Z,98377.99
2018-12-13T08:49:10.138Z,98374.00
2018-12-13T08:51:39.612Z,98381.39
2018-12-13T08:54:09.097Z,98373.43
2018-12-13T08:56:39.058Z,98368.28
2018-12-13T08:59:08.609Z,98374.61
2018-12-13T09:01:38.072Z,98379.39
2018-12-13T09:04:07.834Z,98373.53
2018-12-13T09:06:37.464Z,98367.68
2018-12-13T09:09:09.256Z,98364.18
2018-12-13T09:11:39.038Z,98367.23
2018-12-13T09:16:49.296Z,98361.95
2018-12-13T09:19:19.035Z,98361.02
2018-12-13T09:21:48.556Z,98358.55
2018-12-13T09:24:18.123Z,98366.62
2018-12-13T09:26:47.599Z,98363.70
2018-12-13T09:29:17.186Z,98355.73
2018-12-13T09:31:46.744Z,98357.98
2018-12-13T09:34:16.700Z,98359.60
2018-12-13T09:36:47.877Z,98353.98
2018-12-13T09:39:18.412Z,98357.71
2018-12-13T09:44:33.684Z,98355.59
2018-12-13T09:47:04.604Z,98355.95
2018-12-13T09:49:34.291Z,98360.30
2018-12-13T09:52:08.511Z,98362.27
2018-12-13T09:54:39.847Z,98353.01
2018-12-13T09:59:53.185Z,98353.36
2018-12-13T10:07:45.084Z,98335.20
2018-12-13T10:10:19.231Z,98328.30
2018-12-13T10:12:50.927Z,98336.84
2018-12-13T10:15:31.803Z,98327.83
2018-12-13T10:20:39.995Z,98324.91
2018-12-13T10:23:15.753Z,98324.77
2018-12-13T10:25:49.498Z,98316.92
2018-12-13T10:28:22.266Z,98322.08
2018-12-13T10:30:54.083Z,98316.25
2018-12-13T10:33:27.688Z,98310.23
2018-12-13T10:36:03.935Z,98308.48
2018-12-13T10:41:19.653Z,98300.05
2018-12-13T10:43:50.254Z,98298.86
2018-12-13T10:49:02.547Z,98294.59
2018-12-13T10:51:32.144Z,98297.28
2018-12-13T10:54:02.111Z,98291.88
2018-12-13T10:56:32.156Z,98289.55
2018-12-13T10:59:01.675Z,98284.72
2018-12-13T11:01:36.918Z,98285.80
2018-12-13T11:04:06.904Z,98285.33
2018-12-13T11:06:36.571Z,98288.00
2018-12-13T11:09:07.545Z,98284.82
2018-12-13T11:11:37.261Z,98282.59
2018-12-13T11:14:07.720Z,98287.85
2018-12-13T11:16:37.270Z,98278.02
2018-12-13T11:19:07.048Z,98286.31
2018-12-13T11:21:36.517Z,98280.69
2018-12-13T11:24:08.540Z,98282.80
2018-12-13T11:26:38.445Z,98289.47
2018-12-13T11:29:27.844Z,98292.04
2018-12-13T11:31:57.645Z,98292.91
2018-12-13T11:34:28.847Z,98293.27
2018-12-13T11:37:00.043Z,98276.05
2018-12-13T11:39:29.696Z,98282.14
2018-12-13T11:41:59.431Z,98280.78
2018-12-13T11:44:34.513Z,98277.24
2018-12-13T11:47:05.525Z,98273.16
2018-12-13T11:52:15.416Z,98261.61
2018-12-13T11:54:46.253Z,98264.05
2018-12-13T11:57:16.120Z,98270.13
2018-12-13T11:59:46.074Z,98258.21
2018-12-13T12:02:15.782Z,98254.34
2018-12-13T12:04:45.785Z,98252.70
2018-12-13T12:07:17.845Z,98252.70
2018-12-13T12:12:28.183Z,98256.31
2018-12-13T12:17:41.448Z,98252.23
2018-12-13T12:20:12.411Z,98257.39
2018-12-13T12:22:43.098Z,98246.05
2018-12-13T12:27:51.577Z,98252.81
2018-12-13T12:30:24.806Z,98247.66
2018-12-13T12:32:54.504Z,98246.73
2018-12-13T12:35:24.936Z,98244.61
2018-12-13T12:40:36.675Z,98233.59
2018-12-13T12:45:48.313Z,98231.48
2018-12-13T12:51:03.755Z,98236.31
2018-12-13T12:53:33.685Z,98239.78
2018-12-13T12:56:04.735Z,98232.92
2018-12-13T13:01:19.418Z,98229.83
2018-12-13T13:03:49.950Z,98227.61
2018-12-13T13:06:21.187Z,98230.55
2018-12-13T13:08:54.409Z,98232.14
2018-12-13T13:11:24.244Z,98228.23
2018-12-13T13:13:56.169Z,98232.77
2018-12-13T13:16:31.179Z,98228.33
2018-12-13T13:19:02.487Z,98227.13
2018-12-13T13:21:32.294Z,98225.48
2018-12-13T13:24:05.555Z,98217.64
2018-12-13T13:26:38.540Z,98220.90
2018-12-13T13:29:08.389Z,98218.20
2018-12-13T13:31:41.329Z,98218.88
2018-12-13T13:34:12.870Z,98213.61
2018-12-13T13:36:42.692Z,98211.71
2018-12-13T13:39:12.451Z,98210.77
2018-12-13T13:41:42.292Z,98211.24
2018-12-13T13:44:15.848Z,98217.22
2018-12-13T13:46:45.642Z,98217.54
2018-12-13T13:49:18.412Z,98209.25
2018-12-13T13:51:49.454Z,98205.53
2018-12-13T13:54:19.897Z,98204.35
2018-12-13T13:56:50.724Z,98198.38
2018-12-13T13:59:23.191Z,98200.07
2018-12-13T14:01:56.467Z,98198.08
2018-12-13T14:04:41.188Z,98205.80
2018-12-13T14:07:12.087Z,98213.53
2018-12-13T14:09:48.064Z,98216.73
2018-12-13T14:12:20.707Z,98218.02
2018-12-13T14:14:50.782Z,98225.04
2018-12-13T14:17:21.388Z,98219.67
2018-12-13T14:19:51.322Z,98217.92
2018-12-13T14:22:22.853Z,98213.63
2018-12-13T14:24:53.411Z,98222.09
2018-12-13T14:27:23.763Z,98218.69
2018-12-13T14:29:54.646Z,98214.73
2018-12-13T14:32:25.549Z,98220.34
2018-12-13T14:34:57.601Z,98216.95
2018-12-13T14:37:28.304Z,98220.97
2018-12-13T14:40:00.083Z,98215.86
2018-12-13T14:42:29.962Z,98216.94
2018-12-13T14:44:59.421Z,98223.17
2018-12-13T14:47:29.089Z,98230.19
2018-12-13T14:49:59.010Z,98226.10
2018-12-13T14:55:26.112Z,98230.08
2018-12-13T14:58:02.784Z,98230.19
2018-12-13T15:03:14.478Z,98229.77
2018-12-13T15:05:44.501Z,98231.63
2018-12-13T15:10:57.342Z,98233.52
2018-12-13T15:16:10.760Z,98244.03
2018-12-13T15:18:41.261Z,98243.14
2018-12-13T15:21:15.336Z,98246.03
2018-12-13T15:23:46.047Z,98253.30
2018-12-13T15:26:16.426Z,98253.91
2018-12-13T15:31:40.589Z,98265.23
2018-12-13T15:36:58.241Z,98254.83
2018-12-13T15:42:16.859Z,98262.34
2018-12-13T15:44:48.793Z,98264.91
2018-12-13T15:50:07.260Z,98257.77
2018-12-13T15:52:38.524Z,98260.70
2018-12-13T15:57:50.648Z,98261.55
2018-12-13T16:00:24.693Z,98261.88
2018-12-13T16:03:01.507Z,98265.52
2018-12-13T16:08:14.670Z,98265.27
2018-12-13T16:10:47.545Z,98274.17
2018-12-13T16:16:06.913Z,98271.13
2018-12-13T16:21:19.781Z,98264.84
2018-12-13T16:23:52.414Z,98260.16
2018-12-13T16:26:22.217Z,98267.52
2018-12-13T16:28:53.477Z,98273.60
2018-12-13T16:31:23.327Z,98268.23
2018-12-13T16:33:54.769Z,98268.91
2018-12-13T16:36:25.936Z,98275.25
2018-12-13T16:38:58.236Z,98267.52
2018-12-13T16:41:28.010Z,98275.00
2018-12-13T16:43:58.858Z,98269.27
2018-12-13T16:46:29.768Z,98270.20
2018-12-13T16:48:59.753Z,98267.88
2018-12-13T16:51:29.859Z,98270.09
2018-12-13T16:54:02.334Z,98269.02
2018-12-13T16:56:32.444Z,98270.78
2018-12-13T16:59:04.181Z,98276.28
2018-12-13T17:01:34.903Z,98276.89
2018-12-13T17:06:50.623Z,98271.03
2018-12-13T17:09:22.438Z,98275.11
2018-12-13T17:11:55.550Z,98278.28
2018-12-13T17:14:33.019Z,98278.61
2018-12-13T17:17:07.225Z,98282.15
2018-12-13T17:19:43.569Z,98278.61
2018-12-13T17:22:13.874Z,98280.86
2018-12-13T17:25:24.475Z,98278.03
2018-12-13T17:48:46.844Z,98278.89
2018-12-13T18:09:25.089Z,98284.41
2018-12-13T18:48:07.147Z,98294.59
2018-12-13T19:08:48.259Z,98290.73
2018-12-13T19:29:29.369Z,98290.22
2018-12-13T20:11:00.190Z,98286.47
2018-12-13T20:31:39.665Z,98308.82
2018-12-13T21:10:22.544Z,98310.11
2018-12-13T21:31:04.884Z,98316.08
2018-12-13T21:51:45.170Z,98313.86
2018-12-13T22:12:27.509Z,98323.55
2018-12-13T22:33:08.626Z,98326.97
2018-12-13T23:11:47.821Z,98329.79
2018-12-13T23:32:26.877Z,98354.00
2018-12-13T23:53:07.983Z,98339.63
